| Date | Time | Temp. (oF) | Dew Point (oF) | Rel. Hum. (%) | Press. (in.) | Wind Dir. | Wind Speed (mph) | Hourly Rainfall (in.) |
|
|---|---|---|---|---|---|---|---|---|---|
| 1 | 11/12 | 00:00 | 27 | 24 | 92 | 30.37 | SSE | 1 | 0.00 |
| 2 | 11/11 | 23:00 | 27 | 24 | 89 | 30.36 | SSE | 0 | 0.00 |
| 3 | 11/11 | 22:00 | 28 | 24 | 87 | 30.36 | SSE | 1 | 0.00 |
| 4 | 11/11 | 21:00 | 29 | 24 | 83 | 30.36 | SSE | 1 | 0.00 |
| 5 | 11/11 | 20:00 | 31 | 24 | 78 | 30.36 | SSE | 3 | 0.00 |
| 6 | 11/11 | 19:00 | 34 | 24 | 69 | 30.34 | S | 1 | 0.00 |
| 7 | 11/11 | 18:00 | 37 | 23 | 59 | 30.33 | S | 1 | 0.00 |
| 8 | 11/11 | 17:00 | 40 | 23 | 51 | 30.31 | S | 2 | 0.00 |
| 9 | 11/11 | 16:00 | 43 | 25 | 49 | 30.30 | WSW | 1 | 0.00 |
| 10 | 11/11 | 15:00 | 44 | 25 | 49 | 30.30 | S | 3 | 0.00 |
| 11 | 11/11 | 14:00 | 44 | 26 | 50 | 30.32 | SSE | 4 | 0.00 |
| 12 | 11/11 | 13:00 | 43 | 27 | 55 | 30.36 | SW | 4 | 0.00 |
| 13 | 11/11 | 12:00 | 41 | 26 | 57 | 30.37 | WNW | 6 | 0.00 |
| 14 | 11/11 | 11:00 | 38 | 26 | 62 | 30.40 | WNW | 5 | 0.00 |
| 15 | 11/11 | 10:00 | 36 | 25 | 65 | 30.41 | WSW | 4 | 0.00 |
| 16 | 11/11 | 09:00 | 33 | 25 | 73 | 30.42 | WNW | 7 | 0.00 |
| 17 | 11/11 | 08:00 | 28 | 23 | 82 | 30.41 | SW | 1 | 0.00 |
| 18 | 11/11 | 07:00 | 25 | 21 | 85 | 30.40 | WNW | 1 | 0.00 |
| 19 | 11/11 | 06:00 | 25 | 20 | 84 | 30.38 | SSE | 1 | 0.00 |
| 20 | 11/11 | 05:00 | 25 | 20 | 83 | 30.37 | SSW | 1 | 0.00 |
| 21 | 11/11 | 04:00 | 26 | 20 | 78 | 30.35 | S | 1 | 0.00 |
| 22 | 11/11 | 03:00 | 27 | 20 | 75 | 30.35 | WNW | 3 | 0.00 |
| 23 | 11/11 | 02:00 | 27 | 19 | 74 | 30.35 | W | 2 | 0.00 |
| 24 | 11/11 | 01:00 | 27 | 19 | 74 | 30.34 | SW | 2 | 0.00 |